sensor_id;sensor_type;location;lat;lon;timestamp;pressure;altitude;pressure_sealevel;temperature;humidity
2000;BME280;1001;48.87406500;9.59633600;2023-04-08T00:01:14;95242.66;;;7.59;100.00
2000;BME280;1001;48.87406500;9.59633600;2023-04-08T00:03:41;95243.88;;;7.56;100.00
2000;BME280;1001;48.87406500;9.59633600;2023-04-08T00:06:09;95249.44;;;7.60;100.00
2000;BME280;1001;48.87406500;9.59633600;2023-04-08T00:08:36;95249.47;;;7.53;100.00
2000;BME280;1001;48.87406500;9.59633600;2023-04-08T00:11:03;95247.09;;;7.51;100.00
2000;BME280;1001;48.87406500;9.59633600;2023-04-08T00:13:29;95248.84;;;7.57;100.00
2000;BME280;1001;48.87406500;9.59633600;2023-04-08T00:15:56;95248.44;;;7.61;100.00
2000;BME280;1001;48.87406500;9.59633600;2023-04-08T00:18:23;95248.22;;;7.62;100.00
2000;BME280;1001;48.87406500;9.59633600;2023-04-08T00:20:52;95250.69;;;7.57;100.00
2000;BME280;1001;48.87406500;9.59633600;2023-04-08T00:23:20;95259.63;;;7.68;100.00
2000;BME280;1001;48.87406500;9.59633600;2023-04-08T00:25:47;95249.66;;;7.58;100.00
2000;BME280;1001;48.87406500;9.59633600;2023-04-08T00:28:14;95245.66;;;7.55;100.00
2000;BME280;1001;48.87406500;9.59633600;2023-04-08T00:30:40;95260.81;;;7.72;100.00
2000;BME280;1001;48.87406500;9.59633600;2023-04-08T00:33:07;95247.28;;;7.57;100.00
2000;BME280;1001;48.87406500;9.59633600;2023-04-08T00:35:34;95254.88;;;7.51;100.00
2000;BME280;1001;48.87406500;9.59633600;2023-04-08T00:38:00;95248.25;;;7.55;100.00
2000;BME280;1001;48.87406500;9.59633600;2023-04-08T00:40:29;95251.25;;;7.52;100.00
2000;BME280;1001;48.87406500;9.59633600;2023-04-08T00:42:55;95250.34;;;7.40;100.00
2000;BME280;1001;48.87406500;9.59633600;2023-04-08T00:45:22;95251.34;;;7.33;100.00
2000;BME280;1001;48.87406500;9.59633600;2023-04-08T00:47:49;95254.13;;;7.31;100.00
2000;BME280;1001;48.87406500;9.59633600;2023-04-08T00:50:17;95254.91;;;7.38;100.00
2000;BME280;1001;48.87406500;9.59633600;2023-04-08T00:52:43;95250.16;;;7.29;100.00
2000;BME280;1001;48.87406500;9.59633600;2023-04-08T00:55:10;95250.53;;;7.39;100.00
2000;BME280;1001;48.87406500;9.59633600;2023-04-08T00:57:38;95258.72;;;7.42;100.00
2000;BME280;1001;48.87406500;9.59633600;2023-04-08T01:00:06;95253.28;;;7.50;100.00
2000;BME280;1001;48.87406500;9.59633600;2023-04-08T01:02:42;95253.28;;;7.50;100.00
2000;BME280;1001;48.87406500;9.59633600;2023-04-08T01:05:14;95254.88;;;7.51;100.00
2000;BME280;1001;48.87406500;9.59633600;2023-04-08T01:07:45;95248.50;;;7.41;100.00
2000;BME280;1001;48.87406500;9.59633600;2023-04-08T01:10:16;95252.50;;;7.43;100.00
2000;BME280;1001;48.87406500;9.59633600;2023-04-08T01:12:50;95244.53;;;7.32;100.00
2000;BME280;1001;48.87406500;9.59633600;2023-04-08T01:15:19;95251.53;;;7.38;100.00
2000;BME280;1001;48.87406500;9.59633600;2023-04-08T01:17:47;95247.69;;;7.47;100.00
2000;BME280;1001;48.87406500;9.59633600;2023-04-08T01:20:16;95245.50;;;7.44;100.00
2000;BME280;1001;48.87406500;9.59633600;2023-04-08T01:22:54;95246.91;;;7.46;100.00
2000;BME280;1001;48.87406500;9.59633600;2023-04-08T01:25:29;95252.88;;;7.53;100.00
2000;BME280;1001;48.87406500;9.59633600;2023-04-08T01:27:59;95243.28;;;7.54;100.00
2000;BME280;1001;48.87406500;9.59633600;2023-04-08T01:30:27;95260.84;;;7.65;100.00
2000;BME280;1001;48.87406500;9.59633600;2023-04-08T01:32:55;95259.22;;;7.71;100.00
2000;BME280;1001;48.87406500;9.59633600;2023-04-08T01:35:23;95252.44;;;7.63;100.00
2000;BME280;1001;48.87406500;9.59633600;2023-04-08T01:37:50;95250.47;;;7.59;100.00
2000;BME280;1001;48.87406500;9.59633600;2023-04-08T01:40:18;95249.28;;;7.54;100.00
2000;BME280;1001;48.87406500;9.59633600;2023-04-08T01:42:47;95253.72;;;7.47;100.00
2000;BME280;1001;48.87406500;9.59633600;2023-04-08T01:45:17;95263.31;;;7.47;100.00
2000;BME280;1001;48.87406500;9.59633600;2023-04-08T01:47:44;95256.50;;;7.46;100.00
2000;BME280;1001;48.87406500;9.59633600;2023-04-08T01:50:13;95255.72;;;7.39;100.00
2000;BME280;1001;48.87406500;9.59633600;2023-04-08T01:52:42;95250.75;;;7.37;100.00
2000;BME280;1001;48.87406500;9.59633600;2023-04-08T01:55:10;95254.13;;;7.31;100.00
2000;BME280;1001;48.87406500;9.59633600;2023-04-08T01:57:37;95247.94;;;7.32;100.00
2000;BME280;1001;48.87406500;9.59633600;2023-04-08T02:00:07;95249.34;;;7.35;100.00
2000;BME280;1001;48.87406500;9.59633600;2023-04-08T02:02:37;95248.94;;;7.31;100.00
2000;BME280;1001;48.87406500;9.59633600;2023-04-08T02:05:04;95247.13;;;7.32;100.00
2000;BME280;1001;48.87406500;9.59633600;2023-04-08T02:07:31;95247.16;;;7.25;100.00
2000;BME280;1001;48.87406500;9.59633600;2023-04-08T02:09:58;95252.56;;;7.17;100.00
2000;BME280;1001;48.87406500;9.59633600;2023-04-08T02:12:25;95251.00;;;7.16;100.00
2000;BME280;1001;48.87406500;9.59633600;2023-04-08T02:14:53;95245.38;;;7.19;100.00
2000;BME280;1001;48.87406500;9.59633600;2023-04-08T02:17:25;95253.19;;;7.13;100.00
2000;BME280;1001;48.87406500;9.59633600;2023-04-08T02:20:02;95254.00;;;7.07;100.00
2000;BME280;1001;48.87406500;9.59633600;2023-04-08T02:22:37;95250.22;;;7.03;100.00
2000;BME280;1001;48.87406500;9.59633600;2023-04-08T02:25:07;95260.19;;;7.06;100.00
2000;BME280;1001;48.87406500;9.59633600;2023-04-08T02:27:38;95253.81;;;7.02;100.00
2000;BME280;1001;48.87406500;9.59633600;2023-04-08T02:30:07;95256.22;;;7.03;100.00
2000;BME280;1001;48.87406500;9.59633600;2023-04-08T02:32:36;95258.59;;;7.11;100.00
2000;BME280;1001;48.87406500;9.59633600;2023-04-08T02:35:04;95258.81;;;7.03;100.00
2000;BME280;1001;48.87406500;9.59633600;2023-04-08T02:37:32;95255.38;;;7.16;100.00
2000;BME280;1001;48.87406500;9.59633600;2023-04-08T02:39:59;95257.00;;;7.10;100.00
2000;BME280;1001;48.87406500;9.59633600;2023-04-08T02:42:26;95254.22;;;6.99;100.00
2000;BME280;1001;48.87406500;9.59633600;2023-04-08T02:44:52;95258.84;;;6.83;100.00
2000;BME280;1001;48.87406500;9.59633600;2023-04-08T02:47:19;95258.63;;;6.92;100.00
2000;BME280;1001;48.87406500;9.59633600;2023-04-08T02:49:46;95254.44;;;6.84;100.00
2000;BME280;1001;48.87406500;9.59633600;2023-04-08T02:52:14;95249.44;;;6.89;100.00
2000;BME280;1001;48.87406500;9.59633600;2023-04-08T02:54:41;95265.03;;;6.82;100.00
2000;BME280;1001;48.87406500;9.59633600;2023-04-08T02:57:09;95262.84;;;6.86;100.00
2000;BME280;1001;48.87406500;9.59633600;2023-04-08T02:59:37;95266.81;;;6.88;100.00
2000;BME280;1001;48.87406500;9.59633600;2023-04-08T03:02:05;95252.44;;;6.73;100.00
2000;BME280;1001;48.87406500;9.59633600;2023-04-08T03:04:31;95253.84;;;6.82;100.00
2000;BME280;1001;48.87406500;9.59633600;2023-04-08T03:06:58;95257.25;;;6.82;100.00
2000;BME280;1001;48.87406500;9.59633600;2023-04-08T03:09:26;95256.44;;;6.82;100.00
2000;BME280;1001;48.87406500;9.59633600;2023-04-08T03:11:54;95248.47;;;6.83;100.00
2000;BME280;1001;48.87406500;9.59633600;2023-04-08T03:14:21;95252.44;;;6.86;100.00
2000;BME280;1001;48.87406500;9.59633600;2023-04-08T03:16:48;95252.03;;;6.82;100.00
2000;BME280;1001;48.87406500;9.59633600;2023-04-08T03:19:14;95257.03;;;6.91;100.00
2000;BME280;1001;48.87406500;9.59633600;2023-04-08T03:21:41;95255.81;;;6.86;100.00
2000;BME280;1001;48.87406500;9.59633600;2023-04-08T03:24:08;95250.03;;;6.84;100.00
2000;BME280;1001;48.87406500;9.59633600;2023-04-08T03:26:36;95247.25;;;6.73;100.00
2000;BME280;1001;48.87406500;9.59633600;2023-04-08T03:29:03;95249.03;;;6.72;100.00
2000;BME280;1001;48.87406500;9.59633600;2023-04-08T03:31:31;95245.88;;;6.64;100.00
2000;BME280;1001;48.87406500;9.59633600;2023-04-08T03:33:57;95254.84;;;6.68;100.00
2000;BME280;1001;48.87406500;9.59633600;2023-04-08T03:36:24;95252.63;;;6.65;100.00
2000;BME280;1001;48.87406500;9.59633600;2023-04-08T03:38:51;95246.44;;;6.72;100.00
2000;BME280;1001;48.87406500;9.59633600;2023-04-08T03:41:18;95251.06;;;6.64;100.00
2000;BME280;1001;48.87406500;9.59633600;2023-04-08T03:43:46;95255.66;;;6.68;100.00
2000;BME280;1001;48.87406500;9.59633600;2023-04-08T03:46:13;95250.66;;;6.67;100.00
2000;BME280;1001;48.87406500;9.59633600;2023-04-08T03:48:40;95257.06;;;6.64;100.00
2000;BME280;1001;48.87406500;9.59633600;2023-04-08T03:51:06;95246.47;;;6.66;100.00
2000;BME280;1001;48.87406500;9.59633600;2023-04-08T03:53:33;95239.47;;;6.66;100.00
2000;BME280;1001;48.87406500;9.59633600;2023-04-08T03:55:59;95236.88;;;6.60;100.00
2000;BME280;1001;48.87406500;9.59633600;2023-04-08T03:58:30;95245.06;;;6.57;100.00
2000;BME280;1001;48.87406500;9.59633600;2023-04-08T04:00:58;95249.88;;;6.66;100.00
2000;BME280;1001;48.87406500;9.59633600;2023-04-08T04:03:25;95254.06;;;6.54;100.00
2000;BME280;1001;48.87406500;9.59633600;2023-04-08T04:05:52;95254.06;;;6.74;100.00
2000;BME280;1001;48.87406500;9.59633600;2023-04-08T04:08:18;95250.06;;;6.78;100.00
2000;BME280;1001;48.87406500;9.59633600;2023-04-08T04:10:45;95248.66;;;6.69;100.00
2000;BME280;1001;48.87406500;9.59633600;2023-04-08T04:13:12;95242.25;;;6.58;100.00
2000;BME280;1001;48.87406500;9.59633600;2023-04-08T04:15:38;95251.06;;;6.57;100.00
2000;BME280;1001;48.87406500;9.59633600;2023-04-08T04:18:07;95252.06;;;6.56;100.00
2000;BME280;1001;48.87406500;9.59633600;2023-04-08T04:20:33;95258.47;;;6.41;100.00
2000;BME280;1001;48.87406500;9.59633600;2023-04-08T04:23:01;95265.81;;;6.44;100.00
2000;BME280;1001;48.87406500;9.59633600;2023-04-08T04:25:28;95258.28;;;6.55;100.00
2000;BME280;1001;48.87406500;9.59633600;2023-04-08T04:27:54;95266.84;;;6.62;100.00
2000;BME280;1001;48.87406500;9.59633600;2023-04-08T04:30:21;95255.66;;;6.55;100.00
2000;BME280;1001;48.87406500;9.59633600;2023-04-08T04:32:47;95270.00;;;6.25;100.00
2000;BME280;1001;48.87406500;9.59633600;2023-04-08T04:35:16;95272.59;;;6.25;100.00
2000;BME280;1001;48.87406500;9.59633600;2023-04-08T04:37:42;95268.59;;;6.23;100.00
2000;BME280;1001;48.87406500;9.59633600;2023-04-08T04:40:09;95274.81;;;6.28;100.00
2000;BME280;1001;48.87406500;9.59633600;2023-04-08T04:42:36;95280.22;;;6.46;100.00
2000;BME280;1001;48.87406500;9.59633600;2023-04-08T04:45:03;95286.41;;;6.32;100.00
2000;BME280;1001;48.87406500;9.59633600;2023-04-08T04:47:30;95278.22;;;6.22;100.00
2000;BME280;1001;48.87406500;9.59633600;2023-04-08T04:49:57;95282.81;;;6.27;100.00
2000;BME280;1001;48.87406500;9.59633600;2023-04-08T04:52:25;95279.03;;;6.42;100.00
2000;BME280;1001;48.87406500;9.59633600;2023-04-08T04:54:52;95282.22;;;6.31;100.00
2000;BME280;1001;48.87406500;9.59633600;2023-04-08T04:57:18;95281.41;;;6.44;100.00
2000;BME280;1001;48.87406500;9.59633600;2023-04-08T04:59:45;95290.00;;;6.51;100.00
2000;BME280;1001;48.87406500;9.59633600;2023-04-08T05:02:12;95289.03;;;6.52;100.00
2000;BME280;1001;48.87406500;9.59633600;2023-04-08T05:04:38;95293.19;;;6.40;100.00
2000;BME280;1001;48.87406500;9.59633600;2023-04-08T05:07:05;95294.44;;;6.50;100.00
2000;BME280;1001;48.87406500;9.59633600;2023-04-08T05:09:33;95301.41;;;6.50;100.00
2000;BME280;1001;48.87406500;9.59633600;2023-04-08T05:12:00;95297.03;;;6.57;100.00
2000;BME280;1001;48.87406500;9.59633600;2023-04-08T05:14:28;95306.00;;;6.61;100.00
2000;BME280;1001;48.87406500;9.59633600;2023-04-08T05:16:54;95304.78;;;6.37;100.00
2000;BME280;1001;48.87406500;9.59633600;2023-04-08T05:19:21;95297.19;;;6.42;100.00
2000;BME280;1001;48.87406500;9.59633600;2023-04-08T05:21:48;95300.00;;;6.41;100.00
2000;BME280;1001;48.87406500;9.59633600;2023-04-08T05:24:14;95299.81;;;6.49;100.00
2000;BME280;1001;48.87406500;9.59633600;2023-04-08T05:26:42;95305.41;;;6.46;100.00
2000;BME280;1001;48.87406500;9.59633600;2023-04-08T05:29:09;95292.59;;;6.38;100.00
2000;BME280;1001;48.87406500;9.59633600;2023-04-08T05:31:36;95305.38;;;6.39;100.00
2000;BME280;1001;48.87406500;9.59633600;2023-04-08T05:34:02;95311.78;;;6.37;100.00
2000;BME280;1001;48.87406500;9.59633600;2023-04-08T05:36:29;95309.81;;;6.52;100.00
2000;BME280;1001;48.87406500;9.59633600;2023-04-08T05:38:56;95311.41;;;6.59;100.00
2000;BME280;1001;48.87406500;9.59633600;2023-04-08T05:41:22;95318.78;;;6.56;100.00
2000;BME280;1001;48.87406500;9.59633600;2023-04-08T05:43:50;95317.81;;;6.57;100.00
2000;BME280;1001;48.87406500;9.59633600;2023-04-08T05:46:17;95316.00;;;6.57;100.00
2000;BME280;1001;48.87406500;9.59633600;2023-04-08T05:48:43;95315.81;;;6.52;100.00
2000;BME280;1001;48.87406500;9.59633600;2023-04-08T05:51:12;95316.00;;;6.64;100.00
2000;BME280;1001;48.87406500;9.59633600;2023-04-08T05:53:39;95323.22;;;6.68;100.00
2000;BME280;1001;48.87406500;9.59633600;2023-04-08T05:56:06;95324.81;;;6.69;100.00
2000;BME280;1001;48.87406500;9.59633600;2023-04-08T05:58:33;95326.00;;;6.60;100.00
2000;BME280;1001;48.87406500;9.59633600;2023-04-08T06:01:01;95332.63;;;6.69;100.00
2000;BME280;1001;48.87406500;9.59633600;2023-04-08T06:03:29;95324.59;;;6.84;100.00
2000;BME280;1001;48.87406500;9.59633600;2023-04-08T06:05:56;95336.00;;;6.83;100.00
2000;BME280;1001;48.87406500;9.59633600;2023-04-08T06:08:22;95334.63;;;6.80;100.00
2000;BME280;1001;48.87406500;9.59633600;2023-04-08T06:10:49;95335.22;;;7.02;100.00
2000;BME280;1001;48.87406500;9.59633600;2023-04-08T06:13:16;95335.41;;;7.14;100.00
2000;BME280;1001;48.87406500;9.59633600;2023-04-08T06:15:44;95336.78;;;7.03;100.00
2000;BME280;1001;48.87406500;9.59633600;2023-04-08T06:18:12;95346.19;;;7.17;100.00
2000;BME280;1001;48.87406500;9.59633600;2023-04-08T06:20:39;95350.38;;;7.31;100.00
2000;BME280;1001;48.87406500;9.59633600;2023-04-08T06:23:05;95342.81;;;7.17;100.00
2000;BME280;1001;48.87406500;9.59633600;2023-04-08T06:25:32;95349.59;;;7.37;100.00
2000;BME280;1001;48.87406500;9.59633600;2023-04-08T06:27:59;95345.75;;;7.46;100.00
2000;BME280;1001;48.87406500;9.59633600;2023-04-08T06:30:28;95348.16;;;7.41;100.00
2000;BME280;1001;48.87406500;9.59633600;2023-04-08T06:32:55;95349.38;;;7.39;100.00
2000;BME280;1001;48.87406500;9.59633600;2023-04-08T06:35:23;95358.16;;;7.64;100.00
2000;BME280;1001;48.87406500;9.59633600;2023-04-08T06:37:49;95358.91;;;7.78;100.00
2000;BME280;1001;48.87406500;9.59633600;2023-04-08T06:40:16;95362.53;;;7.70;100.00
2000;BME280;1001;48.87406500;9.59633600;2023-04-08T06:42:43;95367.28;;;7.86;100.00
2000;BME280;1001;48.87406500;9.59633600;2023-04-08T06:45:10;95357.66;;;7.87;100.00
2000;BME280;1001;48.87406500;9.59633600;2023-04-08T06:47:37;95362.84;;;7.93;100.00
2000;BME280;1001;48.87406500;9.59633600;2023-04-08T06:50:04;95366.69;;;7.84;100.00
2000;BME280;1001;48.87406500;9.59633600;2023-04-08T06:52:32;95366.47;;;7.86;100.00
2000;BME280;1001;48.87406500;9.59633600;2023-04-08T06:54:59;95363.69;;;7.87;100.00
2000;BME280;1001;48.87406500;9.59633600;2023-04-08T06:57:26;95362.03;;;7.93;100.00
2000;BME280;1001;48.87406500;9.59633600;2023-04-08T06:59:52;95363.06;;;7.92;100.00
2000;BME280;1001;48.87406500;9.59633600;2023-04-08T07:02:20;95364.06;;;7.91;100.00
2000;BME280;1001;48.87406500;9.59633600;2023-04-08T07:04:47;95371.69;;;7.86;100.00
2000;BME280;1001;48.87406500;9.59633600;2023-04-08T07:07:13;95376.16;;;7.52;100.00
2000;BME280;1001;48.87406500;9.59633600;2023-04-08T07:09:41;95371.13;;;7.71;100.00
2000;BME280;1001;48.87406500;9.59633600;2023-04-08T07:12:10;95371.94;;;7.71;100.00
2000;BME280;1001;48.87406500;9.59633600;2023-04-08T07:14:36;95374.44;;;8.04;100.00
2000;BME280;1001;48.87406500;9.59633600;2023-04-08T07:17:03;95379.56;;;8.30;100.00
2000;BME280;1001;48.87406500;9.59633600;2023-04-08T07:19:30;95374.69;;;8.47;100.00
2000;BME280;1001;48.87406500;9.59633600;2023-04-08T07:21:56;95373.78;;;8.59;100.00
2000;BME280;1001;48.87406500;9.59633600;2023-04-08T07:24:23;95385.56;;;8.68;100.00
2000;BME280;1001;48.87406500;9.59633600;2023-04-08T07:26:52;95386.88;;;8.84;100.00
2000;BME280;1001;48.87406500;9.59633600;2023-04-08T07:29:20;95384.56;;;8.69;100.00
2000;BME280;1001;48.87406500;9.59633600;2023-04-08T07:31:47;95388.22;;;8.62;100.00
2000;BME280;1001;48.87406500;9.59633600;2023-04-08T07:34:13;95387.25;;;8.05;100.00
2000;BME280;1001;48.87406500;9.59633600;2023-04-08T07:36:40;95386.13;;;8.39;100.00
2000;BME280;1001;48.87406500;9.59633600;2023-04-08T07:39:07;95390.94;;;8.36;100.00
2000;BME280;1001;48.87406500;9.59633600;2023-04-08T07:41:34;95406.47;;;8.62;100.00
2000;BME280;1001;48.87406500;9.59633600;2023-04-08T07:44:02;95401.69;;;8.59;100.00
2000;BME280;1001;48.87406500;9.59633600;2023-04-08T07:46:28;95409.19;;;8.73;100.00
2000;BME280;1001;48.87406500;9.59633600;2023-04-08T07:48:55;95412.78;;;9.10;99.58
2000;BME280;1001;48.87406500;9.59633600;2023-04-08T07:51:22;95415.78;;;9.38;98.86
2000;BME280;1001;48.87406500;9.59633600;2023-04-08T07:53:52;95413.28;;;9.93;96.09
2000;BME280;1001;48.87406500;9.59633600;2023-04-08T07:56:18;95417.91;;;10.09;94.39
2000;BME280;1001;48.87406500;9.59633600;2023-04-08T07:58:46;95408.13;;;10.04;93.42
2000;BME280;1001;48.87406500;9.59633600;2023-04-08T08:01:17;95415.59;;;10.55;91.01
2000;BME280;1001;48.87406500;9.59633600;2023-04-08T08:03:44;95418.94;;;10.62;88.23
2000;BME280;1001;48.87406500;9.59633600;2023-04-08T08:06:11;95414.81;;;10.37;87.09
2000;BME280;1001;48.87406500;9.59633600;2023-04-08T08:08:38;95420.09;;;10.66;88.20
2000;BME280;1001;48.87406500;9.59633600;2023-04-08T08:11:05;95419.19;;;10.72;88.27
2000;BME280;1001;48.87406500;9.59633600;2023-04-08T08:13:32;95424.28;;;10.97;86.80
2000;BME280;1001;48.87406500;9.59633600;2023-04-08T08:15:59;95425.63;;;10.88;82.73
2000;BME280;1001;48.87406500;9.59633600;2023-04-08T08:18:27;95424.41;;;10.24;83.00
2000;BME280;1001;48.87406500;9.59633600;2023-04-08T08:20:54;95420.81;;;10.55;84.63
2000;BME280;1001;48.87406500;9.59633600;2023-04-08T08:23:20;95431.09;;;10.20;84.35
2000;BME280;1001;48.87406500;9.59633600;2023-04-08T08:25:47;95430.56;;;10.30;87.34
2000;BME280;1001;48.87406500;9.59633600;2023-04-08T08:28:14;95424.75;;;10.64;86.56
2000;BME280;1001;48.87406500;9.59633600;2023-04-08T08:30:41;95432.72;;;10.69;85.64
2000;BME280;1001;48.87406500;9.59633600;2023-04-08T08:33:07;95432.44;;;10.41;83.87
2000;BME280;1001;48.87406500;9.59633600;2023-04-08T08:35:35;95429.84;;;10.23;84.91
2000;BME280;1001;48.87406500;9.59633600;2023-04-08T08:38:02;95429.25;;;10.03;84.29
2000;BME280;1001;48.87406500;9.59633600;2023-04-08T08:40:29;95431.56;;;10.65;83.63
2000;BME280;1001;48.87406500;9.59633600;2023-04-08T08:42:56;95442.72;;;10.90;81.43
2000;BME280;1001;48.87406500;9.59633600;2023-04-08T08:45:23;95439.78;;;11.10;82.40
2000;BME280;1001;48.87406500;9.59633600;2023-04-08T08:47:50;95440.47;;;11.47;77.81
2000;BME280;1001;48.87406500;9.59633600;2023-04-08T08:50:17;95441.81;;;10.97;78.03
2000;BME280;1001;48.87406500;9.59633600;2023-04-08T08:52:48;95442.34;;;10.87;78.84
2000;BME280;1001;48.87406500;9.59633600;2023-04-08T08:55:17;95450.41;;;11.15;77.38
2000;BME280;1001;48.87406500;9.59633600;2023-04-08T08:57:44;95448.13;;;10.59;77.54
2000;BME280;1001;48.87406500;9.59633600;2023-04-08T09:00:11;95453.44;;;10.53;78.86
2000;BME280;1001;48.87406500;9.59633600;2023-04-08T09:02:41;95459.16;;;10.07;79.16
2000;BME280;1001;48.87406500;9.59633600;2023-04-08T09:05:08;95462.72;;;10.67;79.56
2000;BME280;1001;48.87406500;9.59633600;2023-04-08T09:07:36;95464.22;;;10.27;75.72
2000;BME280;1001;48.87406500;9.59633600;2023-04-08T09:10:07;95456.06;;;10.53;76.03
2000;BME280;1001;48.87406500;9.59633600;2023-04-08T09:12:34;95469.00;;;10.05;75.33
2000;BME280;1001;48.87406500;9.59633600;2023-04-08T09:15:18;95459.13;;;10.32;76.24
2000;BME280;1001;48.87406500;9.59633600;2023-04-08T09:17:45;95456.91;;;10.65;74.12
2000;BME280;1001;48.87406500;9.59633600;2023-04-08T09:20:12;95459.16;;;10.61;71.42
2000;BME280;1001;48.87406500;9.59633600;2023-04-08T09:22:56;95470.84;;;10.22;69.32
2000;BME280;1001;48.87406500;9.59633600;2023-04-08T09:25:25;95461.97;;;10.05;70.84
2000;BME280;1001;48.87406500;9.59633600;2023-04-08T09:27:52;95461.03;;;10.72;69.58
2000;BME280;1001;48.87406500;9.59633600;2023-04-08T09:30:21;95470.41;;;10.80;66.80
2000;BME280;1001;48.87406500;9.59633600;2023-04-08T09:32:49;95453.78;;;11.04;65.35
2000;BME280;1001;48.87406500;9.59633600;2023-04-08T09:35:17;95459.56;;;10.94;68.71
2000;BME280;1001;48.87406500;9.59633600;2023-04-08T09:37:44;95461.78;;;10.91;66.62
2000;BME280;1001;48.87406500;9.59633600;2023-04-08T09:40:11;95460.19;;;11.20;64.92
2000;BME280;1001;48.87406500;9.59633600;2023-04-08T09:42:44;95460.16;;;11.38;64.50
2000;BME280;1001;48.87406500;9.59633600;2023-04-08T09:45:11;95465.44;;;11.20;62.62
2000;BME280;1001;48.87406500;9.59633600;2023-04-08T09:47:55;95466.63;;;10.76;65.48
2000;BME280;1001;48.87406500;9.59633600;2023-04-08T09:50:26;95457.38;;;10.62;67.79
2000;BME280;1001;48.87406500;9.59633600;2023-04-08T09:53:00;95464.19;;;11.22;67.73
2000;BME280;1001;48.87406500;9.59633600;2023-04-08T09:55:29;95468.78;;;10.79;63.56
2000;BME280;1001;48.87406500;9.59633600;2023-04-08T09:58:01;95464.31;;;10.13;63.24
2000;BME280;1001;48.87406500;9.59633600;2023-04-08T10:00:32;95465.47;;;10.17;63.56
2000;BME280;1001;48.87406500;9.59633600;2023-04-08T10:03:05;95463.16;;;10.27;63.74
2000;BME280;1001;48.87406500;9.59633600;2023-04-08T10:05:38;95461.56;;;10.45;66.78
2000;BME280;1001;48.87406500;9.59633600;2023-04-08T10:08:06;95469.13;;;10.35;65.74
2000;BME280;1001;48.87406500;9.59633600;2023-04-08T10:10:33;95475.38;;;10.52;61.45
2000;BME280;1001;48.87406500;9.59633600;2023-04-08T10:13:02;95461.75;;;10.32;62.42
2000;BME280;1001;48.87406500;9.59633600;2023-04-08T10:15:30;95473.34;;;10.36;62.76
2000;BME280;1001;48.87406500;9.59633600;2023-04-08T10:18:30;95466.97;;;10.07;64.66
2000;BME280;1001;48.87406500;9.59633600;2023-04-08T10:21:01;95472.81;;;10.63;63.42
2000;BME280;1001;48.87406500;9.59633600;2023-04-08T10:23:53;95469.19;;;10.64;62.21
2000;BME280;1001;48.87406500;9.59633600;2023-04-08T10:26:29;95469.97;;;10.83;62.98
2000;BME280;1001;48.87406500;9.59633600;2023-04-08T10:31:54;95469.34;;;9.66;65.06
2000;BME280;1001;48.87406500;9.59633600;2023-04-08T10:34:22;95470.56;;;9.70;65.23
2000;BME280;1001;48.87406500;9.59633600;2023-04-08T10:36:51;95474.09;;;9.75;64.19
2000;BME280;1001;48.87406500;9.59633600;2023-04-08T10:39:18;95476.50;;;9.77;64.78
2000;BME280;1001;48.87406500;9.59633600;2023-04-08T10:41:45;95480.59;;;9.91;65.90
2000;BME280;1001;48.87406500;9.59633600;2023-04-08T10:44:15;95478.41;;;10.12;65.09
2000;BME280;1001;48.87406500;9.59633600;2023-04-08T10:46:42;95491.22;;;9.96;65.45
2000;BME280;1001;48.87406500;9.59633600;2023-04-08T10:49:10;95487.69;;;9.59;65.93
2000;BME280;1001;48.87406500;9.59633600;2023-04-08T10:51:37;95485.72;;;9.79;65.11
2000;BME280;1001;48.87406500;9.59633600;2023-04-08T10:54:05;95487.38;;;9.74;64.86
2000;BME280;1001;48.87406500;9.59633600;2023-04-08T10:56:33;95479.31;;;10.00;64.08
2000;BME280;1001;48.87406500;9.59633600;2023-04-08T10:59:00;95488.81;;;9.70;65.76
2000;BME280;1001;48.87406500;9.59633600;2023-04-08T11:01:37;95485.56;;;9.74;66.32
2000;BME280;1001;48.87406500;9.59633600;2023-04-08T11:04:11;95477.09;;;9.79;64.90
2000;BME280;1001;48.87406500;9.59633600;2023-04-08T11:06:38;95480.13;;;10.00;64.03
2000;BME280;1001;48.87406500;9.59633600;2023-04-08T11:09:04;95474.53;;;9.72;62.05
2000;BME280;1001;48.87406500;9.59633600;2023-04-08T11:11:31;95482.31;;;9.79;63.76
2000;BME280;1001;48.87406500;9.59633600;2023-04-08T11:13:58;95483.41;;;9.89;64.41
2000;BME280;1001;48.87406500;9.59633600;2023-04-08T11:16:25;95483.06;;;9.86;63.43
2000;BME280;1001;48.87406500;9.59633600;2023-04-08T11:18:53;95476.38;;;9.40;63.34
2000;BME280;1001;48.87406500;9.59633600;2023-04-08T11:21:23;95488.25;;;9.05;63.42
2000;BME280;1001;48.87406500;9.59633600;2023-04-08T11:23:54;95476.66;;;8.95;63.87
2000;BME280;1001;48.87406500;9.59633600;2023-04-08T11:26:20;95468.34;;;8.79;63.32
2000;BME280;1001;48.87406500;9.59633600;2023-04-08T11:28:47;95463.16;;;8.73;63.07
2000;BME280;1001;48.87406500;9.59633600;2023-04-08T11:31:15;95481.13;;;8.43;64.51
2000;BME280;1001;48.87406500;9.59633600;2023-04-08T11:33:46;95477.88;;;8.99;65.63
2000;BME280;1001;48.87406500;9.59633600;2023-04-08T11:36:14;95479.53;;;9.24;65.49
2000;BME280;1001;48.87406500;9.59633600;2023-04-08T11:38:44;95482.91;;;8.94;62.57
2000;BME280;1001;48.87406500;9.59633600;2023-04-08T11:41:12;95475.41;;;8.72;63.97
2000;BME280;1001;48.87406500;9.59633600;2023-04-08T11:43:38;95479.41;;;8.75;63.71
2000;BME280;1001;48.87406500;9.59633600;2023-04-08T11:46:09;95478.13;;;8.33;63.41
2000;BME280;1001;48.87406500;9.59633600;2023-04-08T11:48:36;95480.34;;;8.36;65.55
2000;BME280;1001;48.87406500;9.59633600;2023-04-08T11:51:04;95470.50;;;8.89;66.38
2000;BME280;1001;48.87406500;9.59633600;2023-04-08T11:53:33;95467.84;;;8.58;63.88